createdAt,value
2018-12-04T00:00:51.665Z,94414.66
2018-12-04T00:15:53.479Z,94407.44
2018-12-04T00:30:50.383Z,94410.41
2018-12-04T00:45:52.337Z,94387.36
2018-12-04T01:00:50.772Z,94387.02
2018-12-04T01:15:51.674Z,94360.97
2018-12-04T01:30:50.639Z,94350.09
2018-12-04T01:45:50.465Z,94347.84
2018-12-04T02:00:50.848Z,94323.94
2018-12-04T02:15:52.805Z,94337.06
2018-12-04T02:30:51.713Z,94337.66
2018-12-04T02:45:50.703Z,94330.21
2018-12-04T03:00:50.968Z,94321.77
2018-12-04T03:15:50.954Z,94321.35
2018-12-04T03:30:51.415Z,94319.44
2018-12-04T03:45:57.615Z,94312.50
2018-12-04T04:00:52.998Z,94314.93
2018-12-04T04:15:51.111Z,94320.84
2018-12-04T04:30:51.425Z,94312.12
2018-12-04T04:45:51.469Z,94326.16
2018-12-04T05:00:52.323Z,94311.62
2018-12-04T05:15:51.279Z,94310.24
2018-12-04T05:30:50.745Z,94304.94
2018-12-04T05:45:51.461Z,94299.80
2018-12-04T06:00:53.232Z,94314.77
2018-12-04T06:15:51.393Z,94324.58
2018-12-04T06:30:50.718Z,94338.86
2018-12-04T06:45:50.723Z,94344.89
2018-12-04T07:00:50.198Z,94342.52
2018-12-04T07:15:51.983Z,94342.20
2018-12-04T07:30:50.899Z,94339.77
2018-12-04T07:45:50.770Z,94354.98
2018-12-04T08:00:50.996Z,94351.48
2018-12-04T08:15:52.683Z,94356.13
2018-12-04T08:30:51.025Z,94351.91
2018-12-04T08:45:50.889Z,94344.19
2018-12-04T09:00:53.289Z,94332.20
2018-12-04T09:15:50.775Z,94325.75
2018-12-04T09:30:51.223Z,94310.95
2018-12-04T09:45:50.594Z,94292.25
2018-12-04T10:00:51.097Z,94281.53
2018-12-04T10:15:51.017Z,94260.20
2018-12-04T10:30:56.502Z,94246.29
2018-12-04T10:45:51.266Z,94229.71
2018-12-04T11:00:56.663Z,94226.32
2018-12-04T11:15:51.077Z,94219.33
2018-12-04T11:30:51.931Z,94221.67
2018-12-04T11:45:51.771Z,94219.86
2018-12-04T12:00:51.491Z,94205.03
2018-12-04T12:15:53.023Z,94207.11
2018-12-04T12:30:52.582Z,94212.05
2018-12-04T12:45:51.415Z,94215.45
2018-12-04T13:00:51.488Z,94218.05
2018-12-04T13:15:53.607Z,94213.61
2018-12-04T13:30:50.801Z,94211.28
2018-12-04T13:45:50.681Z,94227.60
2018-12-04T14:00:52.625Z,94240.34
2018-12-04T14:15:50.530Z,94233.73
2018-12-04T14:30:50.896Z,94231.98
2018-12-04T14:45:50.866Z,94241.09
2018-12-04T15:00:51.409Z,94234.35
2018-12-04T15:15:50.696Z,94245.49
2018-12-04T15:30:51.114Z,94249.08
2018-12-04T16:15:56.508Z,94275.73
2018-12-04T16:30:53.823Z,94274.52
2018-12-04T16:45:57.324Z,94283.95
2018-12-04T17:30:51.518Z,94304.14
2018-12-04T17:45:55.025Z,94319.81
2018-12-04T18:00:51.389Z,94339.59
2018-12-04T18:15:51.793Z,94346.89
2018-12-04T18:30:53.311Z,94360.93
2018-12-04T19:00:51.878Z,94367.48
2018-12-04T19:15:53.641Z,94368.27
2018-12-04T19:30:54.010Z,94371.16
2018-12-04T20:00:54.526Z,94380.50
2018-12-04T20:15:54.015Z,94384.82
2018-12-04T20:30:51.174Z,94393.28
2018-12-04T20:45:53.186Z,94393.73
2018-12-04T21:00:50.882Z,94412.80
2018-12-04T21:15:50.871Z,94412.80
2018-12-04T21:30:55.877Z,94429.44
2018-12-04T21:45:56.386Z,94448.95
2018-12-04T22:00:54.221Z,94458.40
2018-12-04T22:15:51.086Z,94452.20
2018-12-04T22:30:51.394Z,94464.43
2018-12-04T22:45:51.368Z,94460.58
2018-12-04T23:00:50.891Z,94462.90
2018-12-04T23:15:50.764Z,94469.67
2018-12-04T23:30:50.588Z,94480.06
2018-12-04T23:45:50.579Z,94491.52
